Terminal Aerodrome Forecast
Issued by NWS

Home | Current Version | Previous Version | Text Only | Print | Product List | Glossary On
Versions: 1 2 3 4 5 6 7 8 9 10 11 12 13 14 15 16 17
000
FTUS41 KCAR 261120
TAFFVE
TAF
KFVE 261120Z 2612/2712 12012KT 1/2SM -RA FG OVC003
     FM270300 27008KT P6SM VCSH OVC005
     FM271000 28006KT P6SM SCT045=

USA.gov is the U.S. government's official web portal to all federal, state and local government web resources and services.